createdAt,value
2024-02-03T00:00:07.182Z,9.30
2024-02-03T00:02:34.047Z,10.25
2024-02-03T00:05:00.651Z,8.90
2024-02-03T00:07:27.769Z,7.80
2024-02-03T00:09:54.496Z,6.78
2024-02-03T00:12:23.633Z,9.85
2024-02-03T00:14:50.282Z,9.40
2024-02-03T00:17:16.933Z,6.18
2024-02-03T00:19:43.775Z,9.32
2024-02-03T00:22:11.430Z,10.77
2024-02-03T00:24:38.210Z,8.05
2024-02-03T00:27:06.384Z,7.22
2024-02-03T00:29:33.170Z,8.15
2024-02-03T00:31:59.753Z,7.50
2024-02-03T00:34:26.462Z,7.68
2024-02-03T00:36:53.105Z,6.63
2024-02-03T00:39:19.721Z,8.23
2024-02-03T00:41:46.355Z,7.55
2024-02-03T00:44:15.489Z,8.48
2024-02-03T00:46:42.242Z,5.78
2024-02-03T00:49:08.882Z,7.85
2024-02-03T00:51:35.696Z,11.23
2024-02-03T00:54:02.349Z,7.35
2024-02-03T00:56:28.951Z,9.02
2024-02-03T00:58:55.697Z,6.80
2024-02-03T01:01:22.313Z,7.65
2024-02-03T01:03:49.027Z,8.07
2024-02-03T01:06:15.683Z,9.98
2024-02-03T01:08:42.340Z,8.02
2024-02-03T01:11:08.926Z,11.98
2024-02-03T01:13:35.541Z,9.27
2024-02-03T01:16:02.160Z,9.30
2024-02-03T01:18:28.911Z,9.52
2024-02-03T01:20:55.672Z,10.05
2024-02-03T01:23:22.256Z,8.75
2024-02-03T01:25:50.611Z,9.48
2024-02-03T01:28:17.259Z,11.25
2024-02-03T01:30:44.043Z,8.90
2024-02-03T01:33:10.725Z,8.32
2024-02-03T01:35:37.386Z,8.45
2024-02-03T01:38:03.994Z,9.57
2024-02-03T01:40:30.633Z,8.07
2024-02-03T01:43:03.586Z,8.75
2024-02-03T01:45:30.438Z,7.90
2024-02-03T01:47:58.228Z,8.45
2024-02-03T01:50:26.819Z,7.00
2024-02-03T01:52:54.090Z,7.75
2024-02-03T01:55:21.154Z,7.15
2024-02-03T01:57:51.929Z,6.88
2024-02-03T02:00:18.980Z,9.15
2024-02-03T02:02:45.992Z,7.97
2024-02-03T02:05:12.559Z,8.13
2024-02-03T02:07:43.805Z,9.27
2024-02-03T02:10:10.424Z,7.85
2024-02-03T02:12:37.247Z,9.02
2024-02-03T02:15:04.989Z,9.23
2024-02-03T02:17:31.924Z,7.03
2024-02-03T02:20:07.336Z,9.05
2024-02-03T02:22:37.986Z,8.63
2024-02-03T02:25:05.982Z,8.82
2024-02-03T02:27:33.254Z,8.68
2024-02-03T02:29:59.969Z,8.63
2024-02-03T02:32:26.617Z,8.20
2024-02-03T02:34:53.204Z,7.20
2024-02-03T02:37:20.632Z,8.02
2024-02-03T02:39:47.206Z,8.57
2024-02-03T02:42:17.978Z,7.00
2024-02-03T02:44:44.573Z,6.30
2024-02-03T02:47:11.126Z,7.05
2024-02-03T02:49:37.846Z,7.35
2024-02-03T02:52:05.292Z,6.57
2024-02-03T02:54:32.061Z,5.97
2024-02-03T02:56:58.689Z,8.23
2024-02-03T02:59:25.271Z,8.23
2024-02-03T03:01:51.865Z,6.60
2024-02-03T03:04:18.938Z,9.02
2024-02-03T03:06:45.651Z,7.85
2024-02-03T03:09:12.861Z,6.43
2024-02-03T03:11:39.512Z,6.85
2024-02-03T03:14:07.368Z,6.97
2024-02-03T03:16:34.368Z,6.47
2024-02-03T03:19:01.031Z,6.43
2024-02-03T03:21:28.122Z,6.18
2024-02-03T03:23:54.734Z,7.55
2024-02-03T03:26:21.487Z,8.07
2024-02-03T03:28:47.958Z,6.28
2024-02-03T03:31:14.466Z,6.55
2024-02-03T03:33:41.321Z,6.05
2024-02-03T03:36:08.117Z,8.07
2024-02-03T03:38:36.352Z,5.82
2024-02-03T03:41:04.219Z,6.78
2024-02-03T03:43:30.840Z,5.38
2024-02-03T03:45:57.408Z,7.15
2024-02-03T03:48:24.128Z,9.85
2024-02-03T03:50:50.745Z,6.03
2024-02-03T03:53:17.285Z,6.25
2024-02-03T03:55:43.822Z,6.80
2024-02-03T03:58:10.328Z,7.13
2024-02-03T04:00:36.991Z,5.35
2024-02-03T04:03:04.880Z,6.32
2024-02-03T04:05:31.471Z,5.18
2024-02-03T04:07:58.000Z,6.13
2024-02-03T04:10:24.500Z,5.78
2024-02-03T04:12:51.216Z,4.57
2024-02-03T04:15:17.802Z,6.30
2024-02-03T04:17:45.241Z,4.57
2024-02-03T04:20:11.929Z,5.40
2024-02-03T04:22:38.521Z,5.07
2024-02-03T04:25:05.477Z,4.78
2024-02-03T04:27:32.008Z,6.82
2024-02-03T04:29:58.521Z,5.97
2024-02-03T04:32:25.072Z,6.05
2024-02-03T04:34:51.629Z,5.07
2024-02-03T04:37:18.142Z,5.55
2024-02-03T04:39:44.780Z,5.15
2024-02-03T04:42:11.348Z,5.45
2024-02-03T04:44:37.963Z,5.45
2024-02-03T04:47:04.914Z,4.13
2024-02-03T04:49:31.577Z,4.82
2024-02-03T04:52:01.735Z,5.38
2024-02-03T04:54:29.168Z,5.53
2024-02-03T04:56:55.811Z,5.07
2024-02-03T04:59:22.321Z,5.50
2024-02-03T05:01:48.833Z,5.18
2024-02-03T05:04:15.505Z,4.68
2024-02-03T05:06:42.281Z,4.93
2024-02-03T05:09:09.913Z,5.20
2024-02-03T05:11:36.878Z,8.63
2024-02-03T05:14:03.432Z,5.63
2024-02-03T05:16:30.127Z,4.82
2024-02-03T05:18:57.244Z,5.03
2024-02-03T05:21:24.005Z,4.90
2024-02-03T05:23:51.001Z,3.80
2024-02-03T05:26:17.482Z,4.43
2024-02-03T05:28:43.973Z,5.40
2024-02-03T05:31:10.573Z,4.13
2024-02-03T05:33:37.204Z,4.10
2024-02-03T05:36:03.916Z,4.50
2024-02-03T05:38:30.427Z,5.38
2024-02-03T05:40:56.984Z,5.70
2024-02-03T05:43:23.505Z,4.47
2024-02-03T05:45:50.150Z,5.45
2024-02-03T05:48:16.708Z,4.68
2024-02-03T05:50:43.259Z,4.55
2024-02-03T05:53:09.788Z,5.35
2024-02-03T05:55:36.313Z,7.15
2024-02-03T05:58:02.826Z,5.18
2024-02-03T06:00:29.433Z,4.25
2024-02-03T06:02:57.707Z,5.60
2024-02-03T06:05:24.323Z,4.13
2024-02-03T06:07:51.114Z,6.10
2024-02-03T06:10:17.846Z,4.72
2024-02-03T06:12:44.455Z,5.53
2024-02-03T06:15:11.021Z,5.40
2024-02-03T06:17:37.614Z,5.85
2024-02-03T06:20:04.682Z,4.28
2024-02-03T06:22:31.255Z,6.80
2024-02-03T06:24:57.836Z,4.25
2024-02-03T06:27:24.553Z,4.20
2024-02-03T06:29:51.022Z,4.60
2024-02-03T06:32:21.605Z,6.00
2024-02-03T06:34:48.307Z,4.22
2024-02-03T06:37:16.154Z,3.83
2024-02-03T06:39:42.747Z,3.40
2024-02-03T06:42:09.964Z,5.38
2024-02-03T06:44:36.579Z,4.15
2024-02-03T06:47:03.270Z,5.20
2024-02-03T06:49:29.980Z,4.80
2024-02-03T06:51:56.852Z,4.65
2024-02-03T06:54:23.521Z,4.97
2024-02-03T06:56:50.197Z,4.55
2024-02-03T06:59:16.735Z,4.18
2024-02-03T07:01:43.375Z,4.05
2024-02-03T07:04:10.481Z,5.85
2024-02-03T07:06:37.163Z,4.15
2024-02-03T07:09:03.811Z,3.67
2024-02-03T07:11:30.360Z,4.30
2024-02-03T07:13:56.892Z,4.45
2024-02-03T07:16:23.412Z,3.10
2024-02-03T07:18:49.970Z,4.05
2024-02-03T07:21:16.623Z,4.13
2024-02-03T07:23:43.682Z,4.28
2024-02-03T07:26:10.248Z,4.13
2024-02-03T07:28:36.778Z,3.63
2024-02-03T07:31:03.517Z,4.10
2024-02-03T07:33:30.252Z,3.25
2024-02-03T07:35:56.925Z,3.25
2024-02-03T07:38:23.493Z,2.80
2024-02-03T07:40:49.976Z,3.15
2024-02-03T07:43:17.319Z,3.70
2024-02-03T07:45:44.788Z,4.68
2024-02-03T07:48:11.766Z,3.80
2024-02-03T07:50:38.319Z,4.63
2024-02-03T07:53:05.053Z,2.45
2024-02-03T07:55:31.622Z,3.45
2024-02-03T07:57:58.219Z,5.28
2024-02-03T08:00:24.785Z,8.98
2024-02-03T08:02:51.289Z,2.80
2024-02-03T08:05:17.810Z,4.00
2024-02-03T08:07:44.323Z,2.50
2024-02-03T08:10:10.949Z,2.60
2024-02-03T08:12:37.476Z,4.80
2024-02-03T08:15:04.350Z,3.40
2024-02-03T08:17:30.961Z,4.32
2024-02-03T08:19:58.517Z,2.92
2024-02-03T08:22:25.140Z,4.63
2024-02-03T08:24:51.771Z,2.45
2024-02-03T08:27:18.321Z,7.72
2024-02-03T08:29:44.813Z,2.67
2024-02-03T08:32:11.355Z,2.95
2024-02-03T08:34:38.083Z,2.03
2024-02-03T08:37:04.989Z,3.17
2024-02-03T08:42:00.874Z,2.30
2024-02-03T08:44:27.786Z,1.63
2024-02-03T08:46:54.307Z,4.97
2024-02-03T08:49:20.911Z,3.15
2024-02-03T08:51:47.532Z,2.40
2024-02-03T08:54:14.128Z,2.13
2024-02-03T08:56:40.805Z,2.20
2024-02-03T08:59:07.383Z,2.33
2024-02-03T09:01:34.007Z,1.83
2024-02-03T09:04:00.650Z,1.90
2024-02-03T09:06:27.580Z,2.28
2024-02-03T09:08:54.226Z,2.35
2024-02-03T09:11:20.879Z,2.88
2024-02-03T09:13:47.380Z,4.28
2024-02-03T09:16:14.058Z,4.70
2024-02-03T09:18:40.772Z,3.50
2024-02-03T09:21:11.171Z,2.30
2024-02-03T09:23:39.133Z,2.53
2024-02-03T09:26:05.792Z,3.20
2024-02-03T09:28:32.443Z,2.30
2024-02-03T09:30:59.469Z,2.10
2024-02-03T09:33:26.159Z,2.30
2024-02-03T09:35:52.773Z,2.45
2024-02-03T09:38:19.467Z,4.85
2024-02-03T09:40:46.574Z,2.30
2024-02-03T09:43:13.329Z,2.72
2024-02-03T09:45:39.907Z,1.83
2024-02-03T09:48:07.164Z,2.53
2024-02-03T09:50:33.868Z,2.10
2024-02-03T09:53:01.822Z,1.67
2024-02-03T09:55:29.258Z,2.40
2024-02-03T09:57:56.129Z,1.77
2024-02-03T10:00:25.865Z,1.90
2024-02-03T10:02:53.130Z,2.75
2024-02-03T10:05:32.434Z,1.27
2024-02-03T10:08:00.930Z,1.70
2024-02-03T10:13:09.050Z,2.30
2024-02-03T10:15:39.722Z,2.58
2024-02-03T10:18:08.721Z,1.67
2024-02-03T10:20:36.459Z,1.80
2024-02-03T10:23:03.730Z,2.85
2024-02-03T10:25:32.506Z,2.20
2024-02-03T10:28:06.674Z,2.05
2024-02-03T10:30:34.867Z,2.95
2024-02-03T10:33:06.759Z,2.13
2024-02-03T10:35:35.293Z,2.00
2024-02-03T10:38:02.472Z,2.38
2024-02-03T10:40:30.568Z,1.55
2024-02-03T10:43:02.064Z,1.63
2024-02-03T10:45:31.402Z,1.25
2024-02-03T10:48:02.608Z,2.90
2024-02-03T10:50:34.690Z,1.98
2024-02-03T10:53:06.729Z,1.23
2024-02-03T10:55:37.548Z,1.23
2024-02-03T10:58:05.664Z,1.98
2024-02-03T11:00:32.478Z,1.95
2024-02-03T11:03:00.814Z,1.85
2024-02-03T11:05:28.634Z,1.92
2024-02-03T11:07:55.984Z,1.58
2024-02-03T11:10:30.456Z,1.35
2024-02-03T11:13:24.609Z,1.35
2024-02-03T11:15:58.456Z,1.40
2024-02-03T11:18:26.184Z,3.00
2024-02-03T11:21:06.464Z,1.30
2024-02-03T11:23:33.124Z,3.50
2024-02-03T11:26:00.634Z,2.03
2024-02-03T11:28:32.394Z,2.50
2024-02-03T11:31:05.732Z,1.42
2024-02-03T11:33:47.529Z,0.80
2024-02-03T11:36:14.431Z,1.08
2024-02-03T11:38:48.027Z,1.15
2024-02-03T11:41:16.599Z,1.60
2024-02-03T11:43:48.623Z,1.08
2024-02-03T11:46:15.253Z,1.55
2024-02-03T11:48:46.058Z,1.08
2024-02-03T11:51:15.703Z,1.05
2024-02-03T11:53:43.745Z,0.90
2024-02-03T11:56:10.483Z,2.65
2024-02-03T11:58:37.400Z,1.33
2024-02-03T12:01:07.893Z,1.23
2024-02-03T12:03:36.511Z,2.13
2024-02-03T12:06:06.706Z,1.20
2024-02-03T12:08:33.709Z,1.13
2024-02-03T12:11:00.552Z,2.67
2024-02-03T12:13:27.239Z,1.10
2024-02-03T12:15:54.221Z,1.13
2024-02-03T12:18:21.808Z,1.23
2024-02-03T12:20:48.556Z,0.93
2024-02-03T12:23:19.700Z,0.80
2024-02-03T12:25:48.907Z,0.98
2024-02-03T12:28:15.755Z,0.90
2024-02-03T12:30:42.666Z,0.90
2024-02-03T12:33:11.006Z,0.90
2024-02-03T12:35:38.370Z,0.47
2024-02-03T12:38:05.017Z,0.90
2024-02-03T12:40:31.638Z,0.88
2024-02-03T12:42:58.284Z,1.33
2024-02-03T12:45:24.909Z,1.33
2024-02-03T12:47:51.685Z,0.82
2024-02-03T12:50:18.420Z,0.63
2024-02-03T12:52:45.195Z,0.90
2024-02-03T12:55:11.887Z,0.75
2024-02-03T12:57:38.864Z,2.15
2024-02-03T13:00:06.237Z,1.00
2024-02-03T13:02:33.902Z,1.17
2024-02-03T13:05:00.462Z,0.98
2024-02-03T13:07:26.980Z,1.02
2024-02-03T13:09:53.618Z,1.73
2024-02-03T13:12:20.280Z,0.98
2024-02-03T13:14:47.654Z,2.03
2024-02-03T13:17:15.937Z,0.68
2024-02-03T13:19:42.799Z,1.25
2024-02-03T13:22:09.692Z,1.23
2024-02-03T13:24:36.972Z,1.20
2024-02-03T13:27:03.822Z,0.98
2024-02-03T13:29:30.422Z,0.98
2024-02-03T13:31:57.624Z,1.63
2024-02-03T13:34:24.338Z,0.57
2024-02-03T13:36:51.898Z,1.52
2024-02-03T13:39:18.639Z,1.05
2024-02-03T13:41:45.173Z,0.90
2024-02-03T13:44:11.801Z,1.30
2024-02-03T13:46:38.401Z,0.93
2024-02-03T13:49:06.053Z,0.73
2024-02-03T13:51:36.081Z,0.93
2024-02-03T13:54:03.296Z,0.93
2024-02-03T13:56:30.121Z,0.90
2024-02-03T13:58:56.757Z,0.47
2024-02-03T14:01:25.731Z,0.95
2024-02-03T14:03:52.712Z,1.73
2024-02-03T14:06:19.426Z,1.20
2024-02-03T14:08:46.143Z,0.93
2024-02-03T14:11:15.726Z,0.60
2024-02-03T14:13:43.050Z,2.20
2024-02-03T14:16:09.700Z,0.90
2024-02-03T14:18:37.438Z,0.90
2024-02-03T14:21:05.241Z,1.10
2024-02-03T14:23:32.597Z,1.25
2024-02-03T14:25:59.175Z,0.68
2024-02-03T14:28:25.722Z,0.73
2024-02-03T14:30:53.011Z,1.05
2024-02-03T14:33:22.386Z,1.33
2024-02-03T14:35:49.171Z,0.85
2024-02-03T14:38:15.860Z,0.85
2024-02-03T14:40:42.404Z,0.50
2024-02-03T14:43:08.917Z,0.45
2024-02-03T14:45:35.664Z,0.50
2024-02-03T14:48:02.239Z,1.27
2024-02-03T14:50:29.413Z,0.88
2024-02-03T14:52:56.833Z,2.17
2024-02-03T14:55:23.782Z,1.13
2024-02-03T14:57:50.486Z,0.93
2024-02-03T15:00:17.391Z,0.73
2024-02-03T15:02:44.054Z,0.90
2024-02-03T15:05:10.946Z,1.10
2024-02-03T15:07:37.677Z,3.80
2024-02-03T15:10:05.466Z,2.42
2024-02-03T15:12:34.942Z,1.13
2024-02-03T15:15:02.047Z,2.30
2024-02-03T15:17:28.562Z,0.73
2024-02-03T15:19:55.172Z,0.80
2024-02-03T15:22:21.859Z,0.73
2024-02-03T15:24:49.741Z,0.60
2024-02-03T15:27:16.508Z,0.77
2024-02-03T15:29:43.109Z,1.58
2024-02-03T15:32:09.753Z,1.35
2024-02-03T15:34:36.915Z,1.02
2024-02-03T15:37:04.252Z,0.90
2024-02-03T15:39:31.016Z,0.90
2024-02-03T15:41:57.623Z,1.38
2024-02-03T15:44:32.589Z,3.75
2024-02-03T15:47:02.741Z,2.97
2024-02-03T15:49:29.450Z,2.22
2024-02-03T15:51:56.139Z,3.03
2024-02-03T15:54:22.740Z,2.33
2024-02-03T15:56:49.447Z,1.38
2024-02-03T15:59:16.684Z,1.70
2024-02-03T16:01:43.578Z,1.52
2024-02-03T16:04:10.470Z,1.83
2024-02-03T16:06:37.412Z,2.17
2024-02-03T16:09:04.262Z,1.45
2024-02-03T16:11:31.124Z,1.58
2024-02-03T16:14:00.716Z,1.42
2024-02-03T16:16:27.677Z,0.95
2024-02-03T16:18:54.639Z,1.80
2024-02-03T16:21:21.388Z,1.48
2024-02-03T16:23:47.950Z,2.05
2024-02-03T16:26:16.890Z,1.17
2024-02-03T16:28:44.547Z,2.25
2024-02-03T16:31:11.418Z,1.50
2024-02-03T16:33:39.711Z,1.77
2024-02-03T16:36:07.489Z,1.98
2024-02-03T16:38:34.049Z,2.08
2024-02-03T16:41:00.588Z,1.95
2024-02-03T16:43:27.055Z,2.08
2024-02-03T16:45:53.615Z,2.67
2024-02-03T16:48:22.066Z,1.73
2024-02-03T16:50:50.128Z,1.88
2024-02-03T16:53:17.674Z,2.03
2024-02-03T16:55:44.173Z,2.55
2024-02-03T16:58:10.888Z,1.75
2024-02-03T17:00:41.296Z,2.28
2024-02-03T17:03:08.751Z,1.73
2024-02-03T17:05:35.921Z,1.98
2024-02-03T17:08:02.571Z,1.70
2024-02-03T17:10:29.065Z,2.03
2024-02-03T17:12:55.753Z,1.90
2024-02-03T17:15:22.439Z,1.45
2024-02-03T17:17:49.089Z,1.40
2024-02-03T17:20:15.790Z,1.42
2024-02-03T17:22:43.913Z,1.67
2024-02-03T17:25:10.818Z,1.52
2024-02-03T17:27:37.909Z,1.40
2024-02-03T17:30:04.981Z,2.17
2024-02-03T17:32:31.759Z,1.23
2024-02-03T17:34:58.486Z,1.83
2024-02-03T17:37:25.758Z,1.15
2024-02-03T17:39:52.451Z,1.65
2024-02-03T17:42:19.053Z,2.95
2024-02-03T17:44:45.618Z,2.72
2024-02-03T17:47:13.133Z,1.95
2024-02-03T17:49:39.921Z,1.27
2024-02-03T17:52:12.949Z,1.70
2024-02-03T17:54:39.524Z,1.90
2024-02-03T17:57:06.301Z,1.80
2024-02-03T17:59:32.930Z,1.50
2024-02-03T18:01:59.498Z,3.30
2024-02-03T18:04:26.061Z,2.10
2024-02-03T18:06:52.680Z,2.58
2024-02-03T18:09:19.324Z,1.95
2024-02-03T18:11:47.748Z,2.92
2024-02-03T18:14:14.470Z,2.17
2024-02-03T18:16:41.034Z,2.25
2024-02-03T18:19:09.741Z,2.83
2024-02-03T18:21:36.354Z,2.80
2024-02-03T18:24:03.155Z,2.92
2024-02-03T18:26:29.709Z,2.20
2024-02-03T18:28:58.718Z,1.67
2024-02-03T18:31:27.345Z,2.72
2024-02-03T18:33:54.757Z,2.08
2024-02-03T18:36:21.611Z,1.70
2024-02-03T18:38:48.120Z,1.88
2024-02-03T18:41:14.633Z,1.60
2024-02-03T18:43:41.178Z,2.03
2024-02-03T18:46:12.041Z,1.45
2024-02-03T18:48:38.953Z,1.30
2024-02-03T18:51:05.800Z,1.48
2024-02-03T18:53:33.533Z,2.20
2024-02-03T18:56:00.328Z,1.60
2024-02-03T18:58:28.284Z,1.63
2024-02-03T19:00:55.300Z,2.42
2024-02-03T19:03:22.189Z,1.50
2024-02-03T19:05:49.455Z,1.40
2024-02-03T19:08:16.018Z,1.60
2024-02-03T19:10:42.568Z,1.83
2024-02-03T19:13:09.273Z,2.75
2024-02-03T19:15:35.969Z,2.60
2024-02-03T19:18:03.071Z,1.58
2024-02-03T19:20:29.852Z,2.50
2024-02-03T19:22:56.473Z,2.08
2024-02-03T19:25:22.966Z,1.85
2024-02-03T19:27:49.520Z,1.70
2024-02-03T19:30:16.285Z,2.08
2024-02-03T19:32:46.516Z,1.75
2024-02-03T19:35:13.187Z,2.63
2024-02-03T19:37:39.830Z,2.28
2024-02-03T19:40:07.872Z,2.22
2024-02-03T19:42:34.550Z,2.20
2024-02-03T19:45:01.145Z,1.80
2024-02-03T19:47:27.796Z,2.08
2024-02-03T19:49:55.031Z,1.92
2024-02-03T19:52:21.971Z,1.40
2024-02-03T19:54:48.583Z,1.95
2024-02-03T19:57:15.178Z,2.05
2024-02-03T19:59:41.772Z,1.90
2024-02-03T20:02:09.294Z,1.45
2024-02-03T20:04:37.547Z,1.85
2024-02-03T20:07:04.989Z,1.60
2024-02-03T20:09:31.957Z,1.75
2024-02-03T20:11:58.676Z,1.83
2024-02-03T20:14:25.244Z,2.50
2024-02-03T20:16:51.878Z,2.83
2024-02-03T20:19:19.742Z,2.20
2024-02-03T20:21:46.571Z,2.20
2024-02-03T20:24:21.258Z,2.20
2024-02-03T20:26:48.159Z,2.05
2024-02-03T20:29:16.572Z,2.38
2024-02-03T20:31:43.448Z,2.50
2024-02-03T20:34:13.883Z,2.30
2024-02-03T20:36:43.406Z,2.10
2024-02-03T20:39:11.642Z,1.77
2024-02-03T20:41:39.021Z,2.00
2024-02-03T20:44:05.860Z,1.95
2024-02-03T20:46:32.546Z,2.17
2024-02-03T20:48:59.154Z,2.92
2024-02-03T20:51:25.740Z,2.65
2024-02-03T20:53:52.377Z,1.85
2024-02-03T20:56:19.934Z,2.65
2024-02-03T20:58:46.896Z,1.80
2024-02-03T21:01:13.629Z,2.63
2024-02-03T21:03:40.409Z,1.95
2024-02-03T21:06:07.112Z,2.65
2024-02-03T21:08:33.728Z,1.67
2024-02-03T21:11:00.570Z,1.90
2024-02-03T21:13:27.257Z,2.13
2024-02-03T21:15:53.956Z,1.58
2024-02-03T21:18:23.051Z,1.35
2024-02-03T21:20:51.629Z,1.65
2024-02-03T21:23:18.468Z,3.00
2024-02-03T21:25:46.740Z,1.52
2024-02-03T21:28:16.421Z,1.30
2024-02-03T21:30:43.077Z,1.90
2024-02-03T21:33:09.887Z,2.70
2024-02-03T21:35:36.773Z,2.47
2024-02-03T21:38:03.452Z,1.92
2024-02-03T21:40:30.037Z,2.15
2024-02-03T21:42:58.356Z,1.50
2024-02-03T21:45:25.487Z,1.95
2024-02-03T21:47:52.067Z,2.58
2024-02-03T21:50:18.756Z,2.85
2024-02-03T21:52:45.702Z,2.30
2024-02-03T21:55:12.242Z,2.47
2024-02-03T21:57:38.907Z,2.42
2024-02-03T22:00:06.240Z,2.15
2024-02-03T22:02:32.766Z,2.20
2024-02-03T22:04:59.384Z,2.40
2024-02-03T22:07:25.991Z,2.67
2024-02-03T22:09:53.654Z,2.45
2024-02-03T22:12:20.290Z,3.42
2024-02-03T22:14:46.812Z,2.15
2024-02-03T22:17:13.315Z,2.28
2024-02-03T22:19:40.004Z,2.45
2024-02-03T22:22:06.991Z,3.03
2024-02-03T22:24:35.544Z,3.55
2024-02-03T22:27:02.100Z,2.58
2024-02-03T22:29:29.854Z,3.22
2024-02-03T22:31:58.324Z,2.00
2024-02-03T22:34:25.635Z,2.80
2024-02-03T22:36:52.385Z,2.60
2024-02-03T22:39:19.705Z,2.83
2024-02-03T22:41:46.405Z,2.40
2024-02-03T22:44:12.926Z,2.83
2024-02-03T22:46:39.611Z,2.40
2024-02-03T22:49:06.300Z,1.75
2024-02-03T22:51:33.718Z,2.00
2024-02-03T22:54:00.345Z,2.42
2024-02-03T22:56:26.931Z,2.17
2024-02-03T22:58:53.416Z,2.40
2024-02-03T23:01:20.097Z,1.88
2024-02-03T23:03:47.064Z,1.73
2024-02-03T23:06:13.643Z,2.83
2024-02-03T23:08:40.167Z,2.25
2024-02-03T23:11:06.755Z,2.58
2024-02-03T23:13:33.351Z,1.35
2024-02-03T23:16:00.462Z,2.40
2024-02-03T23:18:27.537Z,1.35
2024-02-03T23:20:54.314Z,2.38
2024-02-03T23:23:21.112Z,2.13
2024-02-03T23:25:48.931Z,2.00
2024-02-03T23:28:15.592Z,3.20
2024-02-03T23:30:42.187Z,1.25
2024-02-03T23:33:08.799Z,1.85
2024-02-03T23:35:36.979Z,1.33
2024-02-03T23:38:03.631Z,1.60
2024-02-03T23:40:30.155Z,1.83
2024-02-03T23:42:56.736Z,5.10
2024-02-03T23:45:23.671Z,3.22
2024-02-03T23:47:50.399Z,2.08
2024-02-03T23:50:17.042Z,2.55
2024-02-03T23:52:44.997Z,2.30
2024-02-03T23:55:11.845Z,2.72
2024-02-03T23:57:38.461Z,3.13
